Time;durP1;ratioP1;P1;durP2;ratioP2;P2;SDS_P1;SDS_P2;PMS_P1;PMS_P2;Temp;Humidity;BMP_temperature;BMP_pressure;BME280_temperature;BME280_humidity;BME280_pressure;Samples;Min_cycle;Max_cycle;Signal;HPM_P1;HPM_P2
2022/06/15 04:02:30;;;;;;;8.33;7.53;;;16.40;99.90;;;;;;5077594;23;20492;-65
2022/06/15 04:04:56;;;;;;;9.40;7.03;;;16.40;99.90;;;;;;5016315;28;20475;-65
2022/06/15 04:10:10;;;;;;;7.70;6.90;;;16.30;99.90;;;;;;5016191;28;20412;-65
2022/06/15 04:12:38;;;;;;;7.33;6.63;;;16.30;99.90;;;;;;4996497;28;20450;-66
2022/06/15 04:15:06;;;;;;;7.00;6.30;;;16.30;99.90;;;;;;4996027;28;20512;-66
2022/06/15 04:17:34;;;;;;;6.97;6.40;;;16.40;99.90;;;;;;4996327;28;20484;-65
2022/06/15 04:22:46;;;;;;;6.90;6.27;;;16.40;99.90;;;;;;4996267;28;20426;-65
2022/06/15 04:25:12;;;;;;;7.73;7.13;;;16.50;99.90;;;;;;4996087;28;20454;-65
2022/06/15 04:27:39;;;;;;;6.57;6.03;;;16.50;99.90;;;;;;4996136;28;20534;-65
2022/06/15 04:30:07;;;;;;;7.57;6.83;;;16.60;99.90;;;;;;4996056;28;20817;-66
2022/06/15 04:32:35;;;;;;;7.33;6.63;;;16.60;99.90;;;;;;4995790;28;20484;-65
2022/06/15 04:35:01;;;;;;;6.40;5.80;;;16.60;99.90;;;;;;4995665;28;20936;-65
2022/06/15 04:37:28;;;;;;;7.10;5.87;;;16.70;99.90;;;;;;4995815;28;20529;-66
2022/06/15 04:39:55;;;;;;;7.57;6.57;;;16.70;99.90;;;;;;4996089;28;20454;-65
2022/06/15 04:42:21;;;;;;;8.07;7.27;;;16.70;99.90;;;;;;4996413;28;20481;-65
2022/06/15 04:44:48;;;;;;;8.20;7.50;;;16.80;99.90;;;;;;4996121;28;20552;-65
2022/06/15 04:47:15;;;;;;;9.80;7.70;;;16.80;99.90;;;;;;4995970;28;20458;-65
2022/06/15 04:49:43;;;;;;;10.87;8.23;;;16.90;99.90;;;;;;4995801;28;20857;-65
2022/06/15 04:52:10;;;;;;;10.10;8.17;;;16.90;99.90;;;;;;4995393;28;20803;-65
2022/06/15 04:54:36;;;;;;;9.93;8.90;;;17.00;99.90;;;;;;4995610;28;20486;-66
2022/06/15 04:57:03;;;;;;;8.67;7.87;;;17.10;99.90;;;;;;4995471;28;20807;-66
2022/06/15 04:59:30;;;;;;;9.27;7.60;;;17.10;99.90;;;;;;4995484;28;20454;-66
2022/06/15 05:01:58;;;;;;;9.30;7.40;;;17.10;99.90;;;;;;4994986;28;20996;-65
2022/06/15 05:04:25;;;;;;;9.07;8.17;;;17.20;99.90;;;;;;4995337;28;20454;-65
2022/06/15 05:06:54;;;;;;;9.70;8.63;;;17.20;99.90;;;;;;4995402;28;20875;-65
2022/06/15 05:09:20;;;;;;;9.80;8.90;;;17.30;99.90;;;;;;4995365;28;20449;-66
2022/06/15 05:11:47;;;;;;;9.50;8.60;;;17.30;99.90;;;;;;4995186;28;20532;-65
2022/06/15 05:14:14;;;;;;;10.63;9.13;;;17.40;99.90;;;;;;4995027;28;20477;-65
2022/06/15 05:16:41;;;;;;;9.63;8.73;;;17.40;99.90;;;;;;4995176;28;20461;-65
2022/06/15 05:19:08;;;;;;;9.23;7.60;;;17.50;99.90;;;;;;4995290;28;20454;-65
2022/06/15 05:21:39;;;;;;;7.80;7.00;;;17.60;99.90;;;;;;4995106;28;20473;-65
2022/06/15 05:24:08;;;;;;;13.40;8.03;;;17.60;99.90;;;;;;4995234;28;20434;-65
2022/06/15 05:26:35;;;;;;;9.03;7.53;;;17.70;99.90;;;;;;4994699;28;20865;-65
2022/06/15 05:29:01;;;;;;;11.30;6.83;;;17.80;99.90;;;;;;4994580;28;20460;-65
2022/06/15 05:31:28;;;;;;;8.20;6.90;;;17.90;99.90;;;;;;4994788;28;20488;-65
2022/06/15 05:33:56;;;;;;;9.83;6.90;;;18.00;99.90;;;;;;4994785;28;20477;-65
2022/06/15 05:36:25;;;;;;;7.20;6.50;;;18.10;99.90;;;;;;4994904;28;20454;-65
2022/06/15 05:38:52;;;;;;;7.97;7.17;;;18.20;99.90;;;;;;4994827;28;20512;-65
2022/06/15 05:41:20;;;;;;;8.17;7.47;;;18.30;99.90;;;;;;4994650;28;20477;-65
2022/06/15 05:43:46;;;;;;;10.23;6.90;;;18.50;99.90;;;;;;4995231;28;20453;-65
2022/06/15 05:46:21;;;;;;;8.97;8.07;;;18.60;99.90;;;;;;4995189;28;20453;-65
2022/06/15 05:48:47;;;;;;;7.70;6.90;;;18.80;99.90;;;;;;4994884;28;20437;-65
2022/06/15 05:51:14;;;;;;;8.10;6.50;;;18.90;99.90;;;;;;4994566;28;20469;-65
2022/06/15 05:53:41;;;;;;;10.00;7.00;;;19.00;99.90;;;;;;4994460;28;20481;-65
2022/06/15 05:56:07;;;;;;;8.00;6.97;;;19.00;99.90;;;;;;4994152;28;20819;-65
2022/06/15 05:58:35;;;;;;;7.47;6.80;;;19.00;99.90;;;;;;4994488;28;20454;-65
2022/06/15 06:01:09;;;;;;;8.20;7.30;;;19.10;99.90;;;;;;4994210;28;20492;-65
2022/06/15 06:03:35;;;;;;;8.50;6.33;;;19.20;99.90;;;;;;4994556;28;20430;-65
2022/06/15 06:06:02;;;;;;;7.60;6.53;;;19.30;99.90;;;;;;4994579;28;20482;-65
2022/06/15 06:08:29;;;;;;;9.70;5.83;;;19.40;99.90;;;;;;4994447;28;20464;-65
2022/06/15 06:10:56;;;;;;;6.37;5.77;;;19.50;99.90;;;;;;5001888;28;20504;-66
2022/06/15 06:13:22;;;;;;;8.10;5.30;;;19.60;99.90;;;;;;4997485;28;20504;-66
2022/06/15 06:15:51;;;;;;;5.37;4.90;;;19.80;99.90;;;;;;4994476;28;20457;-66
2022/06/15 06:18:18;;;;;;;7.77;5.77;;;19.90;99.90;;;;;;4994332;28;20453;-65
2022/06/15 06:20:45;;;;;;;6.60;4.90;;;20.00;99.90;;;;;;4994200;28;20482;-66
2022/06/15 06:23:12;;;;;;;8.57;5.57;;;20.00;99.90;;;;;;4994343;28;20516;-66
2022/06/15 06:25:38;;;;;;;5.60;5.10;;;20.10;99.90;;;;;;4994182;28;20462;-66
2022/06/15 06:28:05;;;;;;;5.87;4.97;;;20.30;99.90;;;;;;4994118;28;20465;-65
2022/06/15 06:30:32;;;;;;;5.17;4.67;;;20.40;99.90;;;;;;4994154;28;20555;-66
2022/06/15 06:33:00;;;;;;;8.63;5.30;;;20.60;99.90;;;;;;4994126;28;20457;-66
2022/06/15 06:35:27;;;;;;;5.80;5.23;;;20.70;99.90;;;;;;4994097;28;20535;-66
2022/06/15 06:37:55;;;;;;;4.97;4.57;;;20.90;99.90;;;;;;4994067;28;20481;-67
2022/06/15 06:40:21;;;;;;;5.30;4.90;;;21.20;99.90;;;;;;4997545;28;20801;-66
2022/06/15 06:42:48;;;;;;;5.53;5.03;;;21.40;99.90;;;;;;4998127;28;20457;-65
2022/06/15 06:45:15;;;;;;;5.07;4.10;;;21.70;99.90;;;;;;4998033;28;20450;-66
2022/06/15 06:47:44;;;;;;;7.60;4.33;;;21.90;99.90;;;;;;4997857;28;20552;-66
2022/06/15 06:50:12;;;;;;;5.00;4.23;;;22.20;99.90;;;;;;4997924;28;20500;-65
2022/06/15 06:52:39;;;;;;;5.67;4.27;;;22.60;99.90;;;;;;4997769;28;20507;-65
2022/06/15 06:55:07;;;;;;;6.67;4.77;;;22.90;99.90;;;;;;4997827;28;20556;-65
2022/06/15 06:57:34;;;;;;;5.00;4.50;;;23.10;98.70;;;;;;4998663;28;20507;-66
2022/06/15 07:00:00;;;;;;;5.33;4.20;;;23.40;97.60;;;;;;4997542;28;20457;-66
2022/06/15 07:02:27;;;;;;;4.80;4.30;;;23.90;96.20;;;;;;4997199;28;20482;-66
2022/06/15 07:04:54;;;;;;;5.07;4.50;;;24.40;94.40;;;;;;4997813;28;20462;-64
2022/06/15 07:07:22;;;;;;;5.90;4.30;;;24.90;93.00;;;;;;4997384;28;20461;-64
2022/06/15 07:09:49;;;;;;;4.93;4.53;;;25.50;92.10;;;;;;4997152;28;20464;-64
2022/06/15 07:12:15;;;;;;;4.60;3.93;;;26.20;89.50;;;;;;4996945;28;20474;-64
2022/06/15 07:14:42;;;;;;;8.20;4.70;;;26.90;86.30;;;;;;4997168;28;20841;-64
2022/06/15 07:17:09;;;;;;;9.30;4.43;;;27.60;82.90;;;;;;4997086;28;20464;-64
2022/06/15 07:19:35;;;;;;;5.07;4.03;;;28.00;80.50;;;;;;4997292;28;20823;-64
2022/06/15 07:22:02;;;;;;;5.17;4.00;;;28.30;81.00;;;;;;4997251;28;20477;-64
2022/06/15 07:24:30;;;;;;;6.50;4.17;;;28.80;76.20;;;;;;4997247;28;20453;-65
2022/06/15 07:26:57;;;;;;;4.40;4.00;;;29.30;73.70;;;;;;5000302;28;20485;-65
2022/06/15 07:29:24;;;;;;;4.60;4.20;;;29.80;69.50;;;;;;5001481;28;20468;-65
2022/06/15 07:31:53;;;;;;;4.67;4.17;;;30.20;67.90;;;;;;5000226;28;20473;-65
2022/06/15 07:34:21;;;;;;;5.40;3.70;;;30.60;66.80;;;;;;4998458;28;20782;-65
2022/06/15 07:36:48;;;;;;;4.63;4.23;;;31.10;64.80;;;;;;4997268;28;20540;-64
2022/06/15 07:39:16;;;;;;;5.70;3.90;;;31.50;63.40;;;;;;4996881;28;20461;-64
2022/06/15 07:41:44;;;;;;;9.90;4.10;;;32.10;61.20;;;;;;4996852;28;20481;-65
2022/06/15 07:44:11;;;;;;;6.53;4.50;;;32.30;59.30;;;;;;4996913;28;20453;-65
2022/06/15 07:46:38;;;;;;;3.97;3.57;;;32.10;58.70;;;;;;4996578;28;20946;-67
2022/06/15 07:51:53;;;;;;;5.40;4.47;;;32.70;58.90;;;;;;4995687;28;20951;-64
2022/06/15 07:54:21;;;;;;;4.10;3.60;;;32.70;56.70;;;;;;4996416;28;20968;-65
2022/06/15 07:56:50;;;;;;;5.90;4.00;;;32.50;56.60;;;;;;4996720;28;20456;-65
2022/06/15 07:59:17;;;;;;;4.20;3.73;;;32.80;56.60;;;;;;4996138;28;20457;-65
2022/06/15 08:01:45;;;;;;;3.30;3.10;;;33.10;55.10;;;;;;4995991;28;20532;-65
2022/06/15 08:04:12;;;;;;;6.43;3.60;;;33.50;54.20;;;;;;4996252;28;20454;-65
2022/06/15 08:06:42;;;;;;;6.40;3.67;;;33.50;53.20;;;;;;4996418;28;20495;-65
2022/06/15 08:09:09;;;;;;;3.67;3.37;;;33.40;53.40;;;;;;4996483;28;20495;-66
2022/06/15 08:11:36;;;;;;;6.47;4.20;;;33.50;53.80;;;;;;4996247;28;20477;-66
2022/06/15 08:14:04;;;;;;;4.20;3.83;;;33.70;53.80;;;;;;4996358;28;20481;-66
2022/06/15 08:16:31;;;;;;;4.20;3.80;;;33.40;52.80;;;;;;4996377;28;20457;-66
2022/06/15 08:19:01;;;;;;;4.93;3.60;;;33.50;55.30;;;;;;4996283;28;20460;-66
2022/06/15 08:21:32;;;;;;;4.70;3.90;;;34.10;53.80;;;;;;4996164;28;20527;-67
2022/06/15 08:24:00;;;;;;;6.40;3.63;;;34.20;53.20;;;;;;4996004;28;20442;-67
2022/06/15 08:26:31;;;;;;;3.70;3.43;;;34.60;52.90;;;;;;4996055;28;20458;-67
2022/06/15 08:29:00;;;;;;;4.57;4.17;;;35.00;51.30;;;;;;4996021;28;20474;-66
2022/06/15 08:31:28;;;;;;;4.63;3.33;;;35.50;50.90;;;;;;4996015;28;20476;-66
2022/06/15 08:33:55;;;;;;;4.40;4.00;;;35.60;50.00;;;;;;4996668;28;20491;-68
2022/06/15 08:36:22;;;;;;;4.00;3.30;;;35.20;49.60;;;;;;4995748;28;20952;-67
2022/06/15 08:38:49;;;;;;;3.50;3.30;;;35.40;49.30;;;;;;4996017;28;20468;-66
2022/06/15 08:41:25;;;;;;;3.80;3.37;;;35.60;49.10;;;;;;4995964;28;20484;-70
2022/06/15 08:44:00;;;;;;;6.93;2.67;;;35.80;48.50;;;;;;4995857;28;20441;-67
2022/06/15 08:46:39;;;;;;;3.83;3.33;;;36.00;47.50;;;;;;4997861;28;20441;-67
2022/06/15 08:49:18;;;;;;;3.43;3.13;;;36.20;47.80;;;;;;4999087;28;20437;-67
2022/06/15 08:51:48;;;;;;;4.27;3.70;;;35.90;47.30;;;;;;4996085;28;20480;-68
2022/06/15 08:54:21;;;;;;;3.80;3.37;;;36.20;47.30;;;;;;4996030;28;20481;-67
2022/06/15 08:56:53;;;;;;;4.70;3.83;;;36.30;46.90;;;;;;4995817;28;20453;-66
2022/06/15 08:59:28;;;;;;;4.07;3.37;;;36.40;46.50;;;;;;4995850;28;20449;-67
2022/06/15 09:02:05;;;;;;;4.00;2.93;;;36.40;47.10;;;;;;5000318;28;20576;-66
2022/06/15 09:04:38;;;;;;;3.33;3.03;;;36.60;47.90;;;;;;5001503;28;20443;-66
2022/06/15 09:07:18;;;;;;;3.47;3.10;;;36.90;47.00;;;;;;4996447;28;20500;-66
2022/06/15 09:10:00;;;;;;;3.50;3.20;;;37.00;46.80;;;;;;4995481;28;20437;-66
2022/06/15 09:12:58;;;;;;;3.33;3.13;;;36.60;46.60;;;;;;4994882;28;20469;-66
2022/06/15 09:15:34;;;;;;;3.40;3.10;;;36.90;47.80;;;;;;4995304;28;20560;-66
2022/06/15 09:18:07;;;;;;;6.20;3.23;;;37.20;48.00;;;;;;4995152;28;20441;-66
2022/06/15 09:20:39;;;;;;;6.40;3.13;;;37.40;44.20;;;;;;4995128;28;20481;-67
2022/06/15 09:23:09;;;;;;;3.20;3.00;;;37.70;45.80;;;;;;4996352;28;20437;-66
2022/06/15 09:25:42;;;;;;;3.07;2.70;;;38.00;43.50;;;;;;4996337;28;20438;-66
2022/06/15 09:28:14;;;;;;;3.17;2.97;;;37.90;43.80;;;;;;4995631;28;20445;-67
2022/06/15 09:30:42;;;;;;;3.60;3.30;;;37.80;44.00;;;;;;4995131;28;20477;-67
2022/06/15 09:33:15;;;;;;;3.30;3.10;;;37.60;44.60;;;;;;4995118;28;20461;-66
2022/06/15 09:35:46;;;;;;;3.53;3.27;;;37.10;44.40;;;;;;4994794;28;20524;-66
2022/06/15 09:38:14;;;;;;;3.50;3.20;;;37.30;44.00;;;;;;4995027;28;20495;-66
2022/06/15 09:40:48;;;;;;;3.33;3.03;;;37.00;44.50;;;;;;4995034;28;20480;-67
2022/06/15 09:43:24;;;;;;;3.03;2.83;;;37.20;45.50;;;;;;4994857;28;20436;-67
2022/06/15 09:45:59;;;;;;;4.67;3.03;;;37.70;43.90;;;;;;4995058;28;20445;-67
2022/06/15 09:48:35;;;;;;;7.27;3.43;;;38.10;42.70;;;;;;4995648;28;20444;-67
2022/06/15 09:51:07;;;;;;;3.20;3.00;;;38.50;44.30;;;;;;4994913;28;20527;-67
2022/06/15 09:53:42;;;;;;;5.10;3.30;;;38.70;44.50;;;;;;4995670;28;20182;-68
2022/06/15 09:56:13;;;;;;;4.43;3.43;;;38.80;42.00;;;;;;4994711;28;20467;-67
2022/06/15 09:58:44;;;;;;;5.00;3.03;;;39.00;41.80;;;;;;4994681;28;20561;-67
2022/06/15 10:01:12;;;;;;;4.00;2.97;;;39.10;41.90;;;;;;4994381;28;20601;-67
2022/06/15 10:03:43;;;;;;;3.97;3.67;;;39.10;41.50;;;;;;4994497;28;20669;-67
2022/06/15 10:06:20;;;;;;;3.67;3.30;;;39.30;41.20;;;;;;4994179;28;20448;-67
2022/06/15 10:08:48;;;;;;;3.03;2.70;;;39.20;40.80;;;;;;4994534;28;20193;-67
2022/06/15 10:11:18;;;;;;;4.00;3.63;;;38.80;41.80;;;;;;4994428;28;20495;-67
2022/06/15 10:13:46;;;;;;;3.70;3.30;;;38.90;40.80;;;;;;4994242;28;20512;-67
2022/06/15 10:16:24;;;;;;;5.27;3.10;;;39.20;42.90;;;;;;4994236;28;20520;-67
2022/06/15 10:18:55;;;;;;;3.57;3.27;;;39.40;42.30;;;;;;4994319;28;20186;-67
2022/06/15 10:21:25;;;;;;;4.20;3.60;;;39.20;42.00;;;;;;4994196;28;20218;-67
2022/06/15 10:24:00;;;;;;;4.17;3.80;;;39.40;43.00;;;;;;4994220;28;20202;-67
2022/06/15 10:26:38;;;;;;;4.40;3.30;;;39.20;43.30;;;;;;4993943;28;20805;-67
2022/06/15 10:29:30;;;;;;;4.87;3.50;;;38.90;42.10;;;;;;4993918;28;20633;-67
2022/06/15 10:32:15;;;;;;;3.97;3.67;;;38.80;40.90;;;;;;4994041;28;20564;-67
2022/06/15 10:35:05;;;;;;;4.10;3.70;;;39.00;41.30;;;;;;4994113;28;20442;-67
2022/06/15 10:37:35;;;;;;;3.50;3.20;;;38.90;42.30;;;;;;4994194;28;20190;-67
2022/06/15 10:40:05;;;;;;;3.23;3.03;;;39.20;44.30;;;;;;4994146;28;20438;-67
2022/06/15 10:42:35;;;;;;;5.10;3.63;;;38.90;43.20;;;;;;4994024;28;20226;-67
2022/06/15 10:45:06;;;;;;;3.20;2.90;;;38.80;43.40;;;;;;4993901;28;20905;-67
2022/06/15 10:47:41;;;;;;;3.20;3.00;;;38.90;44.00;;;;;;4993932;28;20441;-67
2022/06/15 10:50:21;;;;;;;7.63;3.50;;;39.00;43.20;;;;;;4993937;28;20182;-67
2022/06/15 10:52:54;;;;;;;4.63;3.50;;;38.80;42.00;;;;;;4994084;28;20182;-66
2022/06/15 11:04:05;;;;;;;4.60;3.07;;;38.40;42.90;;;;;;4994036;28;20412;-66
2022/06/15 11:06:39;;;;;;;2.60;2.40;;;38.40;40.90;;;;;;4993591;28;20845;-66
2022/06/15 11:09:16;;;;;;;5.50;2.70;;;38.50;40.30;;;;;;4993954;28;20807;-65
2022/06/15 11:11:43;;;;;;;2.57;2.33;;;38.30;39.80;;;;;;4993490;28;20999;-66
2022/06/15 11:14:28;;;;;;;2.93;2.33;;;38.30;40.10;;;;;;4993849;28;20453;-66
2022/06/15 11:19:59;;;;;;;4.33;2.27;;;38.20;39.60;;;;;;4993614;28;20417;-66
2022/06/15 11:22:28;;;;;;;3.10;2.70;;;37.70;40.40;;;;;;4993672;28;20535;-66
2022/06/15 11:25:00;;;;;;;2.93;2.77;;;37.50;43.30;;;;;;4993651;28;20453;-66
2022/06/15 11:27:33;;;;;;;3.33;3.13;;;37.40;41.30;;;;;;4997047;28;20932;-66
2022/06/15 11:30:04;;;;;;;3.13;2.93;;;37.10;41.40;;;;;;4997163;28;20441;-66
2022/06/15 11:32:38;;;;;;;3.70;2.50;;;36.10;41.60;;;;;;4997205;28;20477;-66
2022/06/15 11:35:22;;;;;;;2.87;2.67;;;35.50;41.90;;;;;;4996802;28;20980;-66
2022/06/15 11:37:57;;;;;;;3.33;3.03;;;35.00;41.80;;;;;;4997207;28;20524;-66
2022/06/15 11:40:30;;;;;;;2.50;2.30;;;34.70;43.50;;;;;;4997198;28;20437;-66
2022/06/15 11:42:56;;;;;;;3.23;2.50;;;34.70;43.00;;;;;;4997248;28;20859;-66
2022/06/15 11:45:31;;;;;;;3.17;2.90;;;34.50;42.40;;;;;;4996658;28;20449;-66
2022/06/15 11:48:10;;;;;;;3.50;2.60;;;34.40;42.40;;;;;;4997057;28;20448;-66
2022/06/15 11:50:47;;;;;;;4.47;2.80;;;34.40;42.10;;;;;;4997084;28;20479;-66
2022/06/15 11:53:29;;;;;;;3.07;2.87;;;34.40;42.00;;;;;;4996663;28;20445;-66
2022/06/15 11:56:01;;;;;;;2.80;2.60;;;34.40;42.80;;;;;;4996880;28;20825;-66
2022/06/15 11:58:35;;;;;;;3.40;3.20;;;34.70;46.00;;;;;;4996550;28;20448;-66
2022/06/15 12:01:10;;;;;;;3.07;2.70;;;34.70;44.80;;;;;;4996885;28;20485;-66
2022/06/15 12:04:08;;;;;;;3.47;3.27;;;34.70;44.10;;;;;;4996941;28;20437;-66
2022/06/15 12:06:47;;;;;;;3.40;3.20;;;34.60;43.80;;;;;;4996544;28;20464;-66
2022/06/15 12:09:25;;;;;;;3.40;3.00;;;34.70;44.50;;;;;;4996376;28;20442;-66
2022/06/15 12:14:50;;;;;;;2.90;2.67;;;34.50;42.80;;;;;;4996703;28;20421;-67
2022/06/15 12:17:22;;;;;;;3.10;2.80;;;34.60;42.40;;;;;;5000626;28;20996;-66
2022/06/15 12:19:55;;;;;;;3.53;2.80;;;34.50;45.00;;;;;;5007841;28;20434;-67
2022/06/15 12:22:27;;;;;;;4.93;2.70;;;34.40;42.40;;;;;;4998878;28;20477;-67
2022/06/15 12:25:01;;;;;;;3.57;2.20;;;34.40;44.20;;;;;;4997229;28;20437;-66
2022/06/15 12:27:39;;;;;;;5.90;3.00;;;34.50;43.60;;;;;;4996013;28;20441;-67
2022/06/15 12:30:18;;;;;;;5.53;2.67;;;34.50;43.90;;;;;;4996353;28;20456;-67
2022/06/15 12:33:13;;;;;;;3.10;2.47;;;34.40;43.30;;;;;;4996143;28;20441;-67
2022/06/15 12:35:45;;;;;;;3.00;2.70;;;34.30;44.00;;;;;;4995774;28;20999;-67
2022/06/15 12:38:20;;;;;;;6.27;2.70;;;34.20;44.70;;;;;;4995645;28;20905;-67
2022/06/15 12:40:51;;;;;;;3.20;3.00;;;34.30;45.70;;;;;;4997333;28;20476;-67
2022/06/15 12:43:26;;;;;;;3.73;2.73;;;34.40;42.10;;;;;;5000840;28;20441;-67
2022/06/15 12:45:57;;;;;;;8.93;4.57;;;34.50;45.20;;;;;;5000778;28;20456;-68
2022/06/15 12:48:33;;;;;;;2.70;2.60;;;34.70;43.20;;;;;;5000042;28;20442;-68
2022/06/15 12:51:04;;;;;;;2.50;2.40;;;34.70;43.10;;;;;;4996991;28;20521;-67
2022/06/15 12:53:41;;;;;;;2.93;2.67;;;34.60;44.80;;;;;;4996250;28;20443;-68
2022/06/15 12:56:30;;;;;;;2.67;2.47;;;34.70;43.60;;;;;;4996073;28;21037;-68
2022/06/15 12:59:05;;;;;;;3.87;2.80;;;34.80;44.10;;;;;;4995758;28;20860;-68
2022/06/15 13:01:38;;;;;;;2.60;2.50;;;34.40;43.00;;;;;;4995287;28;21058;-68
2022/06/15 13:04:14;;;;;;;3.33;2.50;;;34.40;42.60;;;;;;4997433;28;20442;-66
2022/06/15 13:06:43;;;;;;;2.80;2.60;;;34.20;43.70;;;;;;4997124;28;20460;-66
2022/06/15 13:09:20;;;;;;;2.97;2.57;;;34.00;43.60;;;;;;4996509;28;20463;-67
2022/06/15 13:11:54;;;;;;;2.90;2.70;;;34.00;43.80;;;;;;4995958;28;20478;-68
2022/06/15 13:14:25;;;;;;;2.90;2.67;;;34.10;44.80;;;;;;4995356;28;20445;-67
2022/06/15 13:17:08;;;;;;;3.63;2.80;;;34.20;43.50;;;;;;4995633;28;20465;-68
2022/06/15 13:19:39;;;;;;;3.30;2.60;;;34.40;46.00;;;;;;4995231;28;20487;-68
2022/06/15 13:22:13;;;;;;;2.97;2.60;;;34.60;44.00;;;;;;4995446;28;20473;-67
2022/06/15 13:24:52;;;;;;;3.43;2.97;;;34.60;42.40;;;;;;4995243;28;20461;-67
2022/06/15 13:27:23;;;;;;;2.80;2.60;;;34.80;46.70;;;;;;4995490;28;20456;-67
2022/06/15 13:29:53;;;;;;;5.37;2.60;;;34.90;42.40;;;;;;4995260;28;20442;-67
2022/06/15 13:32:54;;;;;;;3.00;2.33;;;34.80;42.40;;;;;;4995631;28;20564;-69
2022/06/15 13:35:24;;;;;;;5.40;2.60;;;34.70;42.40;;;;;;4994973;28;20483;-68
2022/06/15 13:38:02;;;;;;;4.70;3.83;;;34.40;42.30;;;;;;4995405;28;20460;-68
2022/06/15 13:41:11;;;;;;;3.90;2.60;;;33.90;42.50;;;;;;4994951;28;20905;-67
2022/06/15 13:44:14;;;;;;;3.70;3.10;;;33.70;44.00;;;;;;4995034;28;20438;-67
2022/06/15 13:46:57;;;;;;;4.23;3.07;;;33.60;44.20;;;;;;4994859;28;20947;-68
2022/06/15 13:49:35;;;;;;;8.03;2.67;;;33.60;46.50;;;;;;4994699;28;20909;-67
2022/06/15 13:52:08;;;;;;;3.10;2.90;;;33.70;45.00;;;;;;4995479;28;20872;-67
2022/06/15 13:55:03;;;;;;;4.27;3.23;;;33.70;44.40;;;;;;4994861;28;20865;-67
2022/06/15 13:57:44;;;;;;;3.10;2.90;;;33.60;46.40;;;;;;4961293;28;20487;-68
2022/06/15 14:00:19;;;;;;;3.83;3.53;;;33.70;47.00;;;;;;4994934;28;20496;-68
2022/06/15 14:03:00;;;;;;;3.90;3.17;;;33.90;46.20;;;;;;4994602;28;20433;-67
2022/06/15 14:05:53;;;;;;;3.23;2.80;;;34.10;44.90;;;;;;4994389;28;20901;-68
2022/06/15 14:08:39;;;;;;;5.10;2.97;;;34.30;45.00;;;;;;4994461;28;20418;-66
2022/06/15 14:11:22;;;;;;;4.30;3.13;;;34.20;44.10;;;;;;4994603;28;20488;-68
2022/06/15 14:14:12;;;;;;;3.23;3.03;;;34.00;43.50;;;;;;4994484;28;20433;-69
2022/06/15 14:17:24;;;;;;;3.30;2.97;;;33.90;44.30;;;;;;4994679;28;20488;-67
2022/06/15 14:19:56;;;;;;;2.90;2.70;;;34.10;45.40;;;;;;4994335;28;20434;-66
2022/06/15 14:22:24;;;;;;;2.93;2.70;;;34.20;44.50;;;;;;4994185;28;20476;-67
2022/06/15 14:25:02;;;;;;;3.43;3.13;;;34.00;44.40;;;;;;4993899;28;20462;-66
2022/06/15 14:27:32;;;;;;;2.80;2.70;;;34.00;45.10;;;;;;4994494;28;20438;-67
2022/06/15 14:29:59;;;;;;;5.97;2.70;;;34.10;46.70;;;;;;4994565;28;20790;-66
2022/06/15 14:32:29;;;;;;;2.90;2.70;;;34.30;46.00;;;;;;4994489;28;20473;-66
2022/06/15 14:35:04;;;;;;;4.00;2.70;;;34.30;46.10;;;;;;4995190;28;20449;-66
2022/06/15 14:37:31;;;;;;;5.23;2.60;;;34.30;45.20;;;;;;4994580;28;20472;-66
2022/06/15 14:39:57;;;;;;;3.90;3.50;;;34.30;47.30;;;;;;4994147;28;20519;-66
2022/06/15 14:42:28;;;;;;;3.20;2.90;;;34.30;47.90;;;;;;4994128;28;20496;-65
2022/06/15 14:44:56;;;;;;;5.07;2.60;;;34.20;46.70;;;;;;4993914;28;20527;-67
2022/06/15 14:47:27;;;;;;;4.83;3.30;;;34.20;45.80;;;;;;4994122;28;20492;-66
2022/06/15 14:49:59;;;;;;;2.80;2.63;;;34.20;45.70;;;;;;4994196;28;20476;-67
2022/06/15 14:52:28;;;;;;;3.33;3.00;;;34.30;44.80;;;;;;4994206;28;20473;-68
2022/06/15 14:55:03;;;;;;;3.13;2.93;;;34.20;44.40;;;;;;4993948;28;20460;-67
2022/06/15 14:57:35;;;;;;;3.00;2.70;;;34.20;46.00;;;;;;4993965;28;20501;-67
2022/06/15 15:00:05;;;;;;;4.60;3.50;;;34.30;47.10;;;;;;4995350;28;20464;-67
2022/06/15 15:02:41;;;;;;;3.70;3.40;;;34.40;46.70;;;;;;4997561;28;20488;-67
2022/06/15 15:05:09;;;;;;;3.27;3.07;;;34.40;46.50;;;;;;4997709;28;20527;-66
2022/06/15 15:10:29;;;;;;;2.80;2.70;;;34.30;45.20;;;;;;4997717;28;20417;-67
2022/06/15 15:13:11;;;;;;;3.33;3.13;;;34.20;43.70;;;;;;4997929;28;20504;-67
2022/06/15 15:15:41;;;;;;;5.93;3.07;;;34.20;46.90;;;;;;4997654;28;20444;-66
2022/06/15 15:18:13;;;;;;;6.83;3.20;;;34.00;45.30;;;;;;4998308;28;20527;-67
2022/06/15 15:20:44;;;;;;;3.40;3.13;;;33.90;46.70;;;;;;4997144;28;20979;-66
2022/06/15 15:23:11;;;;;;;2.83;2.73;;;33.80;45.20;;;;;;4997200;28;20905;-66
2022/06/15 15:25:48;;;;;;;3.10;2.90;;;33.80;47.00;;;;;;4997616;28;20532;-66
2022/06/15 15:39:34;;;;;;;3.13;2.93;;;33.60;48.40;;;;;;4997951;28;20429;-66
2022/06/15 15:42:01;;;;;;;3.73;3.30;;;33.60;45.90;;;;;;4997254;28;20484;-66
2022/06/15 15:44:28;;;;;;;3.10;2.97;;;33.30;46.70;;;;;;4997209;28;20449;-66
2022/06/15 15:46:55;;;;;;;4.23;3.20;;;33.20;47.10;;;;;;4997180;28;20449;-66
2022/06/15 15:49:22;;;;;;;3.50;3.20;;;33.10;46.50;;;;;;4997209;28;20460;-66
2022/06/15 15:51:50;;;;;;;3.53;3.30;;;33.10;46.50;;;;;;5000837;28;20479;-66
2022/06/15 15:54:16;;;;;;;4.73;3.47;;;33.10;47.30;;;;;;5006755;28;20866;-66
2022/06/15 15:56:44;;;;;;;4.30;3.00;;;33.10;47.70;;;;;;5001335;28;20477;-66
2022/06/15 15:59:13;;;;;;;3.13;3.03;;;33.10;47.40;;;;;;4996989;28;20454;-66
2022/06/15 16:01:40;;;;;;;3.50;3.30;;;33.10;46.00;;;;;;4996500;28;20540;-66
2022/06/15 16:04:07;;;;;;;3.90;3.50;;;33.20;45.80;;;;;;4996842;28;20477;-67
2022/06/15 16:06:34;;;;;;;3.30;3.10;;;33.20;44.60;;;;;;4996714;28;20454;-67
2022/06/15 16:09:02;;;;;;;3.53;2.43;;;33.10;44.70;;;;;;4996504;28;20450;-67
2022/06/15 16:11:29;;;;;;;3.50;3.17;;;33.20;46.30;;;;;;4995747;28;20477;-66
2022/06/15 16:13:56;;;;;;;3.07;2.53;;;33.20;46.50;;;;;;4997361;28;20454;-68
2022/06/15 16:16:23;;;;;;;3.13;2.87;;;33.20;46.80;;;;;;4998045;28;20464;-66
2022/06/15 16:18:50;;;;;;;3.57;3.27;;;33.10;45.10;;;;;;4996084;28;20460;-67
2022/06/15 16:21:17;;;;;;;3.73;3.20;;;33.10;45.10;;;;;;4996483;28;20477;-66
2022/06/15 16:23:44;;;;;;;3.90;3.47;;;33.00;45.50;;;;;;4997107;28;20464;-67
2022/06/15 16:26:13;;;;;;;2.90;2.70;;;32.90;46.40;;;;;;4998215;28;20503;-66
2022/06/15 16:28:40;;;;;;;5.40;3.27;;;32.90;46.00;;;;;;4996089;28;20480;-67
2022/06/15 16:31:09;;;;;;;3.80;3.10;;;32.90;46.20;;;;;;4996247;28;20480;-67
2022/06/15 16:33:36;;;;;;;3.00;2.80;;;32.90;45.90;;;;;;4995674;28;20815;-66
2022/06/15 16:36:03;;;;;;;3.00;2.73;;;32.80;44.70;;;;;;4995930;28;20461;-67
2022/06/15 16:38:31;;;;;;;2.70;2.60;;;32.80;45.20;;;;;;4995761;28;20833;-67
2022/06/15 16:41:09;;;;;;;3.73;3.43;;;32.70;44.40;;;;;;4996382;28;20551;-67
2022/06/15 16:43:38;;;;;;;3.90;2.67;;;32.60;44.10;;;;;;4996744;28;20941;-67
2022/06/15 16:46:05;;;;;;;2.60;2.50;;;32.40;44.40;;;;;;4995951;28;20468;-67
2022/06/15 16:48:32;;;;;;;3.70;3.50;;;32.30;45.80;;;;;;4995688;28;20465;-67
2022/06/15 16:50:59;;;;;;;3.13;2.83;;;32.30;45.10;;;;;;4995680;28;20480;-66
2022/06/15 16:53:26;;;;;;;4.63;3.67;;;32.30;45.40;;;;;;4995659;28;20457;-68
2022/06/15 16:55:54;;;;;;;4.80;3.30;;;32.30;45.10;;;;;;4995735;28;20464;-68
2022/06/15 16:58:22;;;;;;;3.30;3.07;;;32.20;44.70;;;;;;4995882;28;20473;-68
2022/06/15 17:00:52;;;;;;;3.97;3.13;;;32.10;45.00;;;;;;4996300;28;20580;-67
2022/06/15 17:03:19;;;;;;;3.20;3.00;;;32.00;44.90;;;;;;4996530;28;20446;-67
2022/06/15 17:05:47;;;;;;;2.90;2.70;;;31.90;44.80;;;;;;4995270;28;20460;-66
2022/06/15 17:08:14;;;;;;;2.70;2.60;;;31.80;44.40;;;;;;4995150;28;20492;-66
2022/06/15 17:10:41;;;;;;;4.53;2.90;;;31.70;45.40;;;;;;4994864;28;20474;-66
2022/06/15 17:13:10;;;;;;;2.90;2.70;;;31.70;44.40;;;;;;4994913;28;20943;-68
2022/06/15 17:15:36;;;;;;;2.93;2.53;;;31.60;46.10;;;;;;4995094;28;20458;-67
2022/06/15 17:18:05;;;;;;;2.80;2.60;;;31.50;44.00;;;;;;4994910;28;20473;-67
2022/06/15 17:20:31;;;;;;;3.13;2.93;;;31.30;44.50;;;;;;4995317;28;20457;-67
2022/06/15 17:22:58;;;;;;;3.57;2.73;;;31.20;44.40;;;;;;4993962;28;20902;-67
2022/06/15 17:25:27;;;;;;;3.23;3.03;;;31.10;44.00;;;;;;4994819;28;20458;-67
2022/06/15 17:27:54;;;;;;;5.43;2.50;;;31.00;44.50;;;;;;4995211;28;20465;-68
2022/06/15 17:30:21;;;;;;;2.67;2.47;;;30.90;45.30;;;;;;4995044;28;20448;-68
2022/06/15 17:32:47;;;;;;;2.80;2.60;;;30.80;44.50;;;;;;4995293;28;20450;-69
2022/06/15 17:35:16;;;;;;;3.93;2.70;;;30.80;44.60;;;;;;4995028;28;20457;-68
2022/06/15 17:37:42;;;;;;;6.13;2.70;;;30.70;44.30;;;;;;4994379;28;20474;-67
2022/06/15 17:40:10;;;;;;;3.40;3.10;;;30.70;44.80;;;;;;4994527;28;20457;-67
2022/06/15 17:42:37;;;;;;;2.60;2.40;;;30.60;46.00;;;;;;4994712;28;20480;-68
2022/06/15 17:45:05;;;;;;;3.53;3.23;;;30.60;45.40;;;;;;4994468;28;20937;-67